Wednesday, May 23, 2018, 9:02 AM EDT
Back to Local

KBGR, Bangor Int'l Airport

Location: Bangor, ME, United States Lat: 44.8
Local Time: 9:02 AM EDT (13:02 GMT) Lon: -68.817
Time Zone: US/Eastern Elev: 193 ft

Show me the last for .
Show Decoded

2018-05-23 08:53 METAR KBGR 231253Z 00000KT 10SM SCT013 17/12 A2984 RMK AO2 SLP101 T01720122 =
2018-05-23 07:53 METAR KBGR 231153Z 00000KT 10SM SCT013 BKN040 14/11 A2984 RMK AO2 SLP102 60000
                 70001 T01390106 10139 20117 58001 =
2018-05-23 07:38 METAR KBGR 231138Z 20004KT 10SM FEW016 SCT040 13/11 A2984 RMK AO2 T01330106 =
2018-05-23 06:53 METAR KBGR 231053Z 20004KT 10SM BKN016 BKN040 12/10 A2984 RMK AO2 SLP103
                 T01220100 =
2018-05-23 05:53 METAR KBGR 230953Z 20004KT 10SM FEW019 FEW026 BKN039 12/10 A2984 RMK AO2 SLP102
                 T01170100 =
2018-05-23 04:53 METAR KBGR 230853Z 18004KT 10SM BKN044 OVC080 12/10 A2984 RMK AO2 RAB10E20
                 SLP102 P0000 60000 T01170100 56013 =
2018-05-23 03:53 METAR KBGR 230753Z 17004KT 10SM BKN046 OVC080 12/11 A2985 RMK AO2 RAE0655 SLP105
                 P0000 T01170106 =
2018-05-23 02:53 METAR KBGR 230653Z 16005KT 10SM -RA OVC055 12/11 A2986 RMK AO2 RAB37 SLP110
                 P0000 T01220106 =
2018-05-23 01:53 METAR KBGR 230553Z 18004KT 10SM OVC055 12/11 A2988 RMK AO2 SLP115 60001
                 T01220106 10161 20122 56016 =
2018-05-23 00:53 METAR KBGR 230453Z 19007KT 10SM FEW046 OVC060 13/11 A2989 RMK AO2 SLP118
                 T01280106 402170072 =
2018-05-22 23:53 METAR KBGR 230353Z 18007KT 10SM OVC070 13/11 A2990 RMK AO2 SLP122 T01330106 =
2018-05-22 22:53 METAR KBGR 230253Z 17008KT 10SM FEW055 OVC070 13/11 A2992 RMK AO2 RAE51 SLP131
                 P0001 60001 T01330111 58022 =
2018-05-22 21:53 METAR KBGR 230153Z 17006KT 10SM -RA OVC070 14/11 A2996 RMK AO2 RAB34 SLP143
                 P0000 T01440106 =
2018-05-22 20:53 METAR KBGR 230053Z 17004KT 10SM OVC080 16/10 A2997 RMK AO2 RAB12E33 SLP145 P0000
                 T01560100 =
2018-05-22 19:53 METAR KBGR 222353Z 18007KT 10SM OVC085 16/09 A2999 RMK AO2 SLP154 T01610094
                 10217 20161 56009 =
2018-05-22 18:53 METAR KBGR 222253Z 19009KT 10SM BKN100 OVC200 17/09 A3000 RMK AO2 SLP157
                 T01720089 =
2018-05-22 17:53 METAR KBGR 222153Z 18011KT 10SM BKN120 OVC200 18/08 A3000 RMK AO2 SLP159
                 T01830078 =
2018-05-22 16:53 METAR KBGR 222053Z 17011KT 10SM BKN120 OVC200 21/07 A3002 RMK AO2 SLP163
                 T02060072 56031 =
2018-05-22 15:53 METAR KBGR 221953Z 17010G19KT 10SM BKN120 OVC200 21/04 A3004 RMK AO2 SLP172
                 T02060044 =
2018-05-22 14:53 METAR KBGR 221853Z 20012KT 10SM BKN120 OVC200 21/03 A3007 RMK AO2 SLP180
                 T02110033 =
2018-05-22 13:53 METAR KBGR 221753Z 15011KT 10SM SCT120 BKN200 20/02 A3011 RMK AO2 SLP193
                 T02000017 10217 20117 56020 =
2018-05-22 12:53 METAR KBGR 221653Z 19013G17KT 10SM SCT120 BKN200 21/01 A3012 RMK AO2 SLP199
                 T02060006 =
2018-05-22 11:53 METAR KBGR 221553Z 21013KT 10SM BKN120 OVC200 21/01 A3015 RMK AO2 SLP207 BINOVC
                 T02060006 =
2018-05-22 10:53 METAR KBGR 221453Z 18008KT 10SM BKN120 OVC200 19/01 A3017 RMK AO2 SLP214 BINOVC
                 T01890006 58011 =
2018-05-22 09:53 METAR KBGR 221353Z 19008KT 10SM FEW150 BKN200 17/00 A3018 RMK AO2 SLP218
                 T01670000 =

Support USWX by starting your Amazon purchase here.